Manningtree, United Kingdom
Current Conditions -  °F | °C
As of 10:50 AM on Tuesday 21 Oct 2014 (Local Time) from EGUW Reporting Station
Rain Showers Rain Showers  
Wind Chill: 52°   Ceiling: 6000
Heat Index: 52°   Visibility: 6mi
Dew Point: 45°   Wind: 24mph
Humidity: 76%   Direction: 290°WNW
Pressure: 29.53"   Gusts: 41mph
Location:  51.95°N, 1.06°E
Report Text: EGUW 210950Z 29021G36KT 9999 -SHRA FEW016 BKN060 11/07 Q1000 RESHRA BLU NOSIG
Loading
Personal Weather Stations






























Interactive Weather Map
Tropical Storm Tracking
New forecast layout! Learn more

10-Day Weather Forecast

Advertisements
Track Severe Weather on mobile